sensor_id;sensor_type;location;lat;lon;timestamp;P1;durP1;ratioP1;P2;durP2;ratioP2
29720;SDS011;23665;51.044;3.748;2022-07-29T00:00:42;5.07;;;1.27;;
29720;SDS011;23665;51.044;3.748;2022-07-29T00:03:11;3.17;;;1.27;;
29720;SDS011;23665;51.044;3.748;2022-07-29T00:05:38;5.73;;;1.20;;
29720;SDS011;23665;51.044;3.748;2022-07-29T00:08:05;5.13;;;1.57;;
29720;SDS011;23665;51.044;3.748;2022-07-29T00:10:30;3.73;;;1.03;;
29720;SDS011;23665;51.044;3.748;2022-07-29T00:12:56;5.70;;;1.30;;
29720;SDS011;23665;51.044;3.748;2022-07-29T00:15:22;2.90;;;1.13;;
29720;SDS011;23665;51.044;3.748;2022-07-29T00:17:47;7.43;;;1.50;;
29720;SDS011;23665;51.044;3.748;2022-07-29T00:20:13;5.10;;;1.53;;
29720;SDS011;23665;51.044;3.748;2022-07-29T00:22:39;4.47;;;1.30;;
29720;SDS011;23665;51.044;3.748;2022-07-29T00:25:05;5.33;;;1.07;;
29720;SDS011;23665;51.044;3.748;2022-07-29T00:27:32;7.60;;;1.57;;
29720;SDS011;23665;51.044;3.748;2022-07-29T00:29:58;5.17;;;1.33;;
29720;SDS011;23665;51.044;3.748;2022-07-29T00:32:24;2.17;;;1.20;;
29720;SDS011;23665;51.044;3.748;2022-07-29T00:34:50;3.97;;;1.50;;
29720;SDS011;23665;51.044;3.748;2022-07-29T00:37:34;5.03;;;1.20;;
29720;SDS011;23665;51.044;3.748;2022-07-29T00:40:00;2.43;;;1.23;;
29720;SDS011;23665;51.044;3.748;2022-07-29T00:42:26;4.13;;;1.50;;
29720;SDS011;23665;51.044;3.748;2022-07-29T00:44:52;4.63;;;1.20;;
29720;SDS011;23665;51.044;3.748;2022-07-29T00:47:18;3.80;;;1.57;;
29720;SDS011;23665;51.044;3.748;2022-07-29T00:49:44;3.83;;;1.73;;
29720;SDS011;23665;51.044;3.748;2022-07-29T00:52:10;6.57;;;1.73;;
29720;SDS011;23665;51.044;3.748;2022-07-29T00:54:36;6.07;;;2.70;;
29720;SDS011;23665;51.044;3.748;2022-07-29T00:57:04;3.97;;;1.47;;
29720;SDS011;23665;51.044;3.748;2022-07-29T00:59:32;6.47;;;1.53;;
29720;SDS011;23665;51.044;3.748;2022-07-29T01:01:58;5.47;;;1.43;;
29720;SDS011;23665;51.044;3.748;2022-07-29T01:04:24;5.70;;;1.40;;
29720;SDS011;23665;51.044;3.748;2022-07-29T01:06:50;5.47;;;1.37;;
29720;SDS011;23665;51.044;3.748;2022-07-29T01:09:16;4.00;;;1.57;;
29720;SDS011;23665;51.044;3.748;2022-07-29T01:11:43;6.13;;;1.70;;
29720;SDS011;23665;51.044;3.748;2022-07-29T01:14:11;4.93;;;1.60;;
29720;SDS011;23665;51.044;3.748;2022-07-29T01:16:39;4.50;;;1.63;;
29720;SDS011;23665;51.044;3.748;2022-07-29T01:22:25;4.77;;;1.63;;
29720;SDS011;23665;51.044;3.748;2022-07-29T01:25:09;7.63;;;1.70;;
29720;SDS011;23665;51.044;3.748;2022-07-29T01:27:48;3.53;;;1.40;;
29720;SDS011;23665;51.044;3.748;2022-07-29T01:30:42;4.93;;;1.50;;
29720;SDS011;23665;51.044;3.748;2022-07-29T01:33:11;4.27;;;1.37;;
29720;SDS011;23665;51.044;3.748;2022-07-29T01:36:05;9.50;;;1.60;;
29720;SDS011;23665;51.044;3.748;2022-07-29T01:38:35;6.30;;;1.70;;
29720;SDS011;23665;51.044;3.748;2022-07-29T01:41:12;2.57;;;1.67;;
29720;SDS011;23665;51.044;3.748;2022-07-29T01:43:44;3.60;;;1.37;;
29720;SDS011;23665;51.044;3.748;2022-07-29T01:46:20;6.77;;;1.50;;
29720;SDS011;23665;51.044;3.748;2022-07-29T01:49:02;5.23;;;1.43;;
29720;SDS011;23665;51.044;3.748;2022-07-29T01:54:43;5.47;;;1.47;;
29720;SDS011;23665;51.044;3.748;2022-07-29T01:57:14;6.33;;;1.77;;
29720;SDS011;23665;51.044;3.748;2022-07-29T01:59:45;5.73;;;1.43;;
29720;SDS011;23665;51.044;3.748;2022-07-29T02:02:16;6.40;;;1.60;;
29720;SDS011;23665;51.044;3.748;2022-07-29T02:04:44;6.53;;;2.10;;
29720;SDS011;23665;51.044;3.748;2022-07-29T02:07:13;5.70;;;1.50;;
29720;SDS011;23665;51.044;3.748;2022-07-29T02:09:42;3.13;;;1.17;;
29720;SDS011;23665;51.044;3.748;2022-07-29T02:12:10;2.90;;;1.20;;
29720;SDS011;23665;51.044;3.748;2022-07-29T02:14:39;4.63;;;1.73;;
29720;SDS011;23665;51.044;3.748;2022-07-29T02:17:08;3.63;;;1.03;;
29720;SDS011;23665;51.044;3.748;2022-07-29T02:19:35;3.53;;;1.13;;
29720;SDS011;23665;51.044;3.748;2022-07-29T02:22:03;4.00;;;0.93;;
29720;SDS011;23665;51.044;3.748;2022-07-29T02:24:31;5.00;;;1.23;;
29720;SDS011;23665;51.044;3.748;2022-07-29T02:26:58;5.50;;;1.43;;
29720;SDS011;23665;51.044;3.748;2022-07-29T02:29:26;2.60;;;1.10;;
29720;SDS011;23665;51.044;3.748;2022-07-29T02:31:53;3.63;;;1.23;;
29720;SDS011;23665;51.044;3.748;2022-07-29T02:34:22;3.83;;;1.10;;
29720;SDS011;23665;51.044;3.748;2022-07-29T02:36:49;3.47;;;0.90;;
29720;SDS011;23665;51.044;3.748;2022-07-29T02:39:16;6.07;;;1.53;;
29720;SDS011;23665;51.044;3.748;2022-07-29T02:41:44;4.03;;;1.20;;
29720;SDS011;23665;51.044;3.748;2022-07-29T02:44:14;4.47;;;1.40;;
29720;SDS011;23665;51.044;3.748;2022-07-29T02:46:51;3.07;;;1.10;;
29720;SDS011;23665;51.044;3.748;2022-07-29T02:51:58;3.17;;;1.00;;
29720;SDS011;23665;51.044;3.748;2022-07-29T02:54:41;4.90;;;1.37;;
29720;SDS011;23665;51.044;3.748;2022-07-29T02:57:22;4.00;;;0.90;;
29720;SDS011;23665;51.044;3.748;2022-07-29T02:59:51;2.53;;;0.90;;
29720;SDS011;23665;51.044;3.748;2022-07-29T03:02:20;3.60;;;1.30;;
29720;SDS011;23665;51.044;3.748;2022-07-29T03:04:46;8.20;;;1.67;;
29720;SDS011;23665;51.044;3.748;2022-07-29T03:07:14;2.07;;;1.10;;
29720;SDS011;23665;51.044;3.748;2022-07-29T03:09:43;4.90;;;1.70;;
29720;SDS011;23665;51.044;3.748;2022-07-29T03:12:10;2.43;;;1.00;;
29720;SDS011;23665;51.044;3.748;2022-07-29T03:14:36;1.60;;;0.87;;
29720;SDS011;23665;51.044;3.748;2022-07-29T03:17:03;2.33;;;0.90;;
29720;SDS011;23665;51.044;3.748;2022-07-29T03:19:29;4.33;;;1.77;;
29720;SDS011;23665;51.044;3.748;2022-07-29T03:21:56;5.97;;;1.17;;
29720;SDS011;23665;51.044;3.748;2022-07-29T03:24:27;3.17;;;1.73;;
29720;SDS011;23665;51.044;3.748;2022-07-29T03:26:57;2.47;;;1.10;;
29720;SDS011;23665;51.044;3.748;2022-07-29T03:29:24;6.47;;;1.47;;
29720;SDS011;23665;51.044;3.748;2022-07-29T03:31:50;3.40;;;0.83;;
29720;SDS011;23665;51.044;3.748;2022-07-29T03:34:15;2.20;;;0.90;;
29720;SDS011;23665;51.044;3.748;2022-07-29T03:36:41;3.07;;;1.00;;
29720;SDS011;23665;51.044;3.748;2022-07-29T03:39:07;2.47;;;0.80;;
29720;SDS011;23665;51.044;3.748;2022-07-29T03:41:35;3.27;;;1.10;;
29720;SDS011;23665;51.044;3.748;2022-07-29T03:44:03;2.50;;;0.87;;
29720;SDS011;23665;51.044;3.748;2022-07-29T03:46:32;3.17;;;1.13;;
29720;SDS011;23665;51.044;3.748;2022-07-29T03:49:01;8.20;;;1.43;;
29720;SDS011;23665;51.044;3.748;2022-07-29T03:51:28;3.37;;;1.00;;
29720;SDS011;23665;51.044;3.748;2022-07-29T03:53:55;1.33;;;0.70;;
29720;SDS011;23665;51.044;3.748;2022-07-29T03:56:21;4.13;;;1.20;;
29720;SDS011;23665;51.044;3.748;2022-07-29T03:58:51;4.47;;;1.67;;
29720;SDS011;23665;51.044;3.748;2022-07-29T04:01:18;4.70;;;1.47;;
29720;SDS011;23665;51.044;3.748;2022-07-29T04:03:45;2.90;;;0.87;;
29720;SDS011;23665;51.044;3.748;2022-07-29T04:06:11;3.80;;;1.03;;
29720;SDS011;23665;51.044;3.748;2022-07-29T04:08:37;5.33;;;1.47;;
29720;SDS011;23665;51.044;3.748;2022-07-29T04:11:04;3.60;;;1.47;;
29720;SDS011;23665;51.044;3.748;2022-07-29T04:13:30;2.17;;;1.20;;
29720;SDS011;23665;51.044;3.748;2022-07-29T04:15:57;2.33;;;1.00;;
29720;SDS011;23665;51.044;3.748;2022-07-29T04:18:23;3.63;;;1.17;;
29720;SDS011;23665;51.044;3.748;2022-07-29T04:20:48;2.10;;;1.10;;
29720;SDS011;23665;51.044;3.748;2022-07-29T04:23:14;3.80;;;1.20;;
29720;SDS011;23665;51.044;3.748;2022-07-29T04:25:40;3.67;;;1.23;;
29720;SDS011;23665;51.044;3.748;2022-07-29T04:28:06;5.63;;;1.50;;
29720;SDS011;23665;51.044;3.748;2022-07-29T04:30:34;2.87;;;1.50;;
29720;SDS011;23665;51.044;3.748;2022-07-29T04:33:01;3.40;;;1.03;;
29720;SDS011;23665;51.044;3.748;2022-07-29T04:35:28;2.97;;;1.13;;
29720;SDS011;23665;51.044;3.748;2022-07-29T04:37:54;5.27;;;1.20;;
29720;SDS011;23665;51.044;3.748;2022-07-29T04:40:20;3.63;;;1.20;;
29720;SDS011;23665;51.044;3.748;2022-07-29T04:42:46;3.33;;;1.10;;
29720;SDS011;23665;51.044;3.748;2022-07-29T04:45:12;9.63;;;1.47;;
29720;SDS011;23665;51.044;3.748;2022-07-29T04:47:38;3.70;;;1.27;;
29720;SDS011;23665;51.044;3.748;2022-07-29T04:50:03;3.27;;;1.40;;
29720;SDS011;23665;51.044;3.748;2022-07-29T04:52:31;6.00;;;1.40;;
29720;SDS011;23665;51.044;3.748;2022-07-29T04:54:57;4.13;;;1.50;;
29720;SDS011;23665;51.044;3.748;2022-07-29T04:57:23;5.23;;;1.43;;
29720;SDS011;23665;51.044;3.748;2022-07-29T04:59:49;6.93;;;2.77;;
29720;SDS011;23665;51.044;3.748;2022-07-29T05:02:14;5.23;;;2.93;;
29720;SDS011;23665;51.044;3.748;2022-07-29T05:04:40;4.67;;;2.63;;
29720;SDS011;23665;51.044;3.748;2022-07-29T05:07:06;5.37;;;2.37;;
29720;SDS011;23665;51.044;3.748;2022-07-29T05:09:31;9.27;;;5.43;;
29720;SDS011;23665;51.044;3.748;2022-07-29T05:11:57;6.63;;;4.13;;
29720;SDS011;23665;51.044;3.748;2022-07-29T05:14:23;7.20;;;4.60;;
29720;SDS011;23665;51.044;3.748;2022-07-29T05:16:49;9.43;;;5.53;;
29720;SDS011;23665;51.044;3.748;2022-07-29T05:19:16;9.37;;;5.67;;
29720;SDS011;23665;51.044;3.748;2022-07-29T05:21:42;10.13;;;5.67;;
29720;SDS011;23665;51.044;3.748;2022-07-29T05:24:09;11.13;;;6.23;;
29720;SDS011;23665;51.044;3.748;2022-07-29T05:26:35;13.30;;;6.63;;
29720;SDS011;23665;51.044;3.748;2022-07-29T05:29:01;8.20;;;5.67;;
29720;SDS011;23665;51.044;3.748;2022-07-29T05:31:27;9.53;;;6.40;;
29720;SDS011;23665;51.044;3.748;2022-07-29T05:33:52;11.07;;;7.63;;
29720;SDS011;23665;51.044;3.748;2022-07-29T05:36:18;13.73;;;8.17;;
29720;SDS011;23665;51.044;3.748;2022-07-29T05:38:44;13.07;;;6.77;;
29720;SDS011;23665;51.044;3.748;2022-07-29T05:41:09;16.70;;;9.77;;
29720;SDS011;23665;51.044;3.748;2022-07-29T16:39:39;7.13;;;1.30;;
29720;SDS011;23665;51.044;3.748;2022-07-29T16:42:04;5.10;;;1.10;;
29720;SDS011;23665;51.044;3.748;2022-07-29T16:44:30;4.53;;;1.20;;
29720;SDS011;23665;51.044;3.748;2022-07-29T16:46:56;2.97;;;1.37;;
29720;SDS011;23665;51.044;3.748;2022-07-29T16:49:22;5.07;;;1.20;;
29720;SDS011;23665;51.044;3.748;2022-07-29T16:51:48;4.33;;;1.00;;
29720;SDS011;23665;51.044;3.748;2022-07-29T16:54:13;3.77;;;1.13;;
29720;SDS011;23665;51.044;3.748;2022-07-29T16:56:39;4.97;;;1.30;;
29720;SDS011;23665;51.044;3.748;2022-07-29T16:59:05;4.47;;;1.20;;
29720;SDS011;23665;51.044;3.748;2022-07-29T17:01:31;8.67;;;1.83;;
29720;SDS011;23665;51.044;3.748;2022-07-29T17:03:56;4.40;;;1.07;;
29720;SDS011;23665;51.044;3.748;2022-07-29T17:06:32;8.27;;;1.87;;
29720;SDS011;23665;51.044;3.748;2022-07-29T17:09:02;6.60;;;1.30;;
29720;SDS011;23665;51.044;3.748;2022-07-29T17:11:29;9.00;;;1.77;;
29720;SDS011;23665;51.044;3.748;2022-07-29T17:13:55;5.90;;;1.70;;
29720;SDS011;23665;51.044;3.748;2022-07-29T17:16:23;6.57;;;1.40;;
29720;SDS011;23665;51.044;3.748;2022-07-29T17:18:51;7.27;;;1.63;;
29720;SDS011;23665;51.044;3.748;2022-07-29T17:21:17;3.83;;;1.30;;
29720;SDS011;23665;51.044;3.748;2022-07-29T17:23:43;5.67;;;1.20;;
29720;SDS011;23665;51.044;3.748;2022-07-29T17:26:09;3.92;;;1.42;;
29720;SDS011;23665;51.044;3.748;2022-07-29T17:28:35;6.00;;;1.20;;
29720;SDS011;23665;51.044;3.748;2022-07-29T17:31:00;5.83;;;1.30;;
29720;SDS011;23665;51.044;3.748;2022-07-29T17:33:26;4.50;;;1.60;;
29720;SDS011;23665;51.044;3.748;2022-07-29T17:35:51;4.67;;;2.00;;
29720;SDS011;23665;51.044;3.748;2022-07-29T17:38:36;5.13;;;1.40;;
29720;SDS011;23665;51.044;3.748;2022-07-29T17:41:01;5.77;;;1.80;;
29720;SDS011;23665;51.044;3.748;2022-07-29T17:43:27;3.00;;;1.20;;
29720;SDS011;23665;51.044;3.748;2022-07-29T17:45:53;4.73;;;1.47;;
29720;SDS011;23665;51.044;3.748;2022-07-29T17:48:18;6.03;;;1.10;;
29720;SDS011;23665;51.044;3.748;2022-07-29T17:50:45;7.20;;;1.50;;
29720;SDS011;23665;51.044;3.748;2022-07-29T17:53:11;7.37;;;1.50;;
29720;SDS011;23665;51.044;3.748;2022-07-29T17:55:37;4.00;;;1.60;;
29720;SDS011;23665;51.044;3.748;2022-07-29T17:58:03;4.80;;;1.80;;
29720;SDS011;23665;51.044;3.748;2022-07-29T18:00:30;2.60;;;1.10;;
29720;SDS011;23665;51.044;3.748;2022-07-29T18:02:56;6.73;;;1.90;;
29720;SDS011;23665;51.044;3.748;2022-07-29T18:05:21;4.17;;;1.30;;
29720;SDS011;23665;51.044;3.748;2022-07-29T18:07:47;6.27;;;1.70;;
29720;SDS011;23665;51.044;3.748;2022-07-29T18:10:14;6.73;;;1.87;;
29720;SDS011;23665;51.044;3.748;2022-07-29T18:12:39;5.57;;;1.17;;
29720;SDS011;23665;51.044;3.748;2022-07-29T18:15:05;4.43;;;1.17;;
29720;SDS011;23665;51.044;3.748;2022-07-29T18:17:32;5.50;;;1.47;;
29720;SDS011;23665;51.044;3.748;2022-07-29T18:19:58;4.00;;;1.40;;
29720;SDS011;23665;51.044;3.748;2022-07-29T18:22:24;6.07;;;1.10;;
29720;SDS011;23665;51.044;3.748;2022-07-29T18:24:49;4.30;;;1.27;;
29720;SDS011;23665;51.044;3.748;2022-07-29T18:27:15;7.03;;;1.57;;
29720;SDS011;23665;51.044;3.748;2022-07-29T18:29:41;5.60;;;1.33;;
29720;SDS011;23665;51.044;3.748;2022-07-29T18:32:06;4.97;;;1.20;;
29720;SDS011;23665;51.044;3.748;2022-07-29T18:34:32;5.03;;;1.50;;
29720;SDS011;23665;51.044;3.748;2022-07-29T18:36:58;6.50;;;1.50;;
29720;SDS011;23665;51.044;3.748;2022-07-29T18:39:23;8.23;;;1.30;;
29720;SDS011;23665;51.044;3.748;2022-07-29T18:41:49;5.27;;;1.10;;
29720;SDS011;23665;51.044;3.748;2022-07-29T18:44:15;7.97;;;1.10;;
29720;SDS011;23665;51.044;3.748;2022-07-29T18:46:42;3.57;;;1.10;;
29720;SDS011;23665;51.044;3.748;2022-07-29T18:49:08;2.63;;;1.03;;
29720;SDS011;23665;51.044;3.748;2022-07-29T18:51:34;3.90;;;1.30;;
29720;SDS011;23665;51.044;3.748;2022-07-29T18:53:59;9.80;;;1.07;;
29720;SDS011;23665;51.044;3.748;2022-07-29T18:56:25;3.73;;;1.20;;
29720;SDS011;23665;51.044;3.748;2022-07-29T18:58:51;5.90;;;1.40;;
29720;SDS011;23665;51.044;3.748;2022-07-29T19:01:16;3.17;;;1.10;;
29720;SDS011;23665;51.044;3.748;2022-07-29T19:03:42;5.97;;;1.60;;
29720;SDS011;23665;51.044;3.748;2022-07-29T19:06:08;10.53;;;1.47;;
29720;SDS011;23665;51.044;3.748;2022-07-29T19:08:33;4.40;;;1.40;;
29720;SDS011;23665;51.044;3.748;2022-07-29T19:10:59;8.43;;;1.77;;
29720;SDS011;23665;51.044;3.748;2022-07-29T19:13:24;8.97;;;1.40;;
29720;SDS011;23665;51.044;3.748;2022-07-29T19:15:50;108.10;;;14.90;;
29720;SDS011;23665;51.044;3.748;2022-07-29T19:18:16;43.57;;;6.57;;
29720;SDS011;23665;51.044;3.748;2022-07-29T19:20:42;26.60;;;3.50;;
29720;SDS011;23665;51.044;3.748;2022-07-29T19:23:08;11.57;;;1.83;;
29720;SDS011;23665;51.044;3.748;2022-07-29T19:25:34;5.07;;;1.40;;
29720;SDS011;23665;51.044;3.748;2022-07-29T19:27:59;6.00;;;1.30;;
29720;SDS011;23665;51.044;3.748;2022-07-29T19:30:25;2.93;;;1.50;;
29720;SDS011;23665;51.044;3.748;2022-07-29T19:32:51;7.47;;;1.60;;
29720;SDS011;23665;51.044;3.748;2022-07-29T19:35:17;7.03;;;1.80;;
29720;SDS011;23665;51.044;3.748;2022-07-29T19:37:52;6.83;;;1.90;;
29720;SDS011;23665;51.044;3.748;2022-07-29T19:40:19;8.07;;;1.57;;
29720;SDS011;23665;51.044;3.748;2022-07-29T19:42:46;5.87;;;1.43;;
29720;SDS011;23665;51.044;3.748;2022-07-29T19:45:16;9.30;;;1.50;;
29720;SDS011;23665;51.044;3.748;2022-07-29T19:47:41;10.63;;;2.10;;
29720;SDS011;23665;51.044;3.748;2022-07-29T19:50:07;8.07;;;1.87;;
29720;SDS011;23665;51.044;3.748;2022-07-29T19:52:34;7.43;;;1.57;;
29720;SDS011;23665;51.044;3.748;2022-07-29T19:55:00;8.53;;;1.90;;
29720;SDS011;23665;51.044;3.748;2022-07-29T19:57:26;5.90;;;2.33;;
29720;SDS011;23665;51.044;3.748;2022-07-29T19:59:51;10.63;;;2.70;;
29720;SDS011;23665;51.044;3.748;2022-07-29T20:02:17;12.10;;;2.60;;
29720;SDS011;23665;51.044;3.748;2022-07-29T20:04:43;9.60;;;2.20;;
29720;SDS011;23665;51.044;3.748;2022-07-29T20:07:09;8.57;;;1.80;;
29720;SDS011;23665;51.044;3.748;2022-07-29T20:09:35;7.73;;;1.90;;
29720;SDS011;23665;51.044;3.748;2022-07-29T20:12:01;7.97;;;2.03;;
29720;SDS011;23665;51.044;3.748;2022-07-29T20:14:28;15.63;;;2.83;;
29720;SDS011;23665;51.044;3.748;2022-07-29T20:16:54;5.20;;;2.10;;
29720;SDS011;23665;51.044;3.748;2022-07-29T20:19:20;10.93;;;2.73;;
29720;SDS011;23665;51.044;3.748;2022-07-29T20:21:45;7.00;;;2.00;;
29720;SDS011;23665;51.044;3.748;2022-07-29T20:24:11;7.23;;;1.77;;
29720;SDS011;23665;51.044;3.748;2022-07-29T20:26:37;4.60;;;1.47;;
29720;SDS011;23665;51.044;3.748;2022-07-29T20:29:02;8.50;;;2.53;;
29720;SDS011;23665;51.044;3.748;2022-07-29T20:31:29;16.47;;;2.77;;
29720;SDS011;23665;51.044;3.748;2022-07-29T20:33:56;6.97;;;1.50;;
29720;SDS011;23665;51.044;3.748;2022-07-29T20:36:22;7.53;;;2.03;;
29720;SDS011;23665;51.044;3.748;2022-07-29T20:38:48;6.77;;;2.10;;
29720;SDS011;23665;51.044;3.748;2022-07-29T20:41:13;5.63;;;1.80;;
29720;SDS011;23665;51.044;3.748;2022-07-29T20:43:39;13.70;;;2.40;;
29720;SDS011;23665;51.044;3.748;2022-07-29T20:46:05;10.63;;;2.50;;
29720;SDS011;23665;51.044;3.748;2022-07-29T20:48:31;13.60;;;2.73;;
29720;SDS011;23665;51.044;3.748;2022-07-29T20:50:57;8.37;;;2.10;;
29720;SDS011;23665;51.044;3.748;2022-07-29T20:53:22;10.60;;;2.27;;
29720;SDS011;23665;51.044;3.748;2022-07-29T20:55:48;9.83;;;2.07;;
29720;SDS011;23665;51.044;3.748;2022-07-29T20:58:14;5.67;;;2.03;;
29720;SDS011;23665;51.044;3.748;2022-07-29T21:00:40;7.37;;;2.13;;
29720;SDS011;23665;51.044;3.748;2022-07-29T21:03:05;3.73;;;1.60;;
29720;SDS011;23665;51.044;3.748;2022-07-29T21:05:31;7.53;;;1.97;;
29720;SDS011;23665;51.044;3.748;2022-07-29T21:07:57;14.37;;;2.70;;
29720;SDS011;23665;51.044;3.748;2022-07-29T21:10:22;13.10;;;2.30;;
29720;SDS011;23665;51.044;3.748;2022-07-29T21:12:48;7.43;;;2.60;;
29720;SDS011;23665;51.044;3.748;2022-07-29T21:15:14;7.90;;;2.37;;
29720;SDS011;23665;51.044;3.748;2022-07-29T21:17:40;7.00;;;1.80;;
29720;SDS011;23665;51.044;3.748;2022-07-29T21:20:13;7.83;;;1.90;;
29720;SDS011;23665;51.044;3.748;2022-07-29T21:22:40;9.07;;;2.30;;
29720;SDS011;23665;51.044;3.748;2022-07-29T21:25:07;5.57;;;2.27;;
29720;SDS011;23665;51.044;3.748;2022-07-29T21:27:34;11.43;;;3.20;;
29720;SDS011;23665;51.044;3.748;2022-07-29T21:30:18;7.43;;;2.30;;
29720;SDS011;23665;51.044;3.748;2022-07-29T21:32:44;10.43;;;3.20;;
29720;SDS011;23665;51.044;3.748;2022-07-29T21:35:09;9.70;;;3.20;;
29720;SDS011;23665;51.044;3.748;2022-07-29T21:37:36;13.17;;;3.77;;
29720;SDS011;23665;51.044;3.748;2022-07-29T21:40:03;9.23;;;2.10;;
29720;SDS011;23665;51.044;3.748;2022-07-29T21:42:29;5.53;;;2.50;;
29720;SDS011;23665;51.044;3.748;2022-07-29T21:44:55;6.20;;;2.23;;
29720;SDS011;23665;51.044;3.748;2022-07-29T21:47:21;13.70;;;3.00;;
29720;SDS011;23665;51.044;3.748;2022-07-29T21:49:46;8.13;;;2.27;;
29720;SDS011;23665;51.044;3.748;2022-07-29T21:52:12;8.83;;;2.10;;
29720;SDS011;23665;51.044;3.748;2022-07-29T21:54:38;6.63;;;1.70;;
29720;SDS011;23665;51.044;3.748;2022-07-29T21:57:03;4.70;;;2.37;;
29720;SDS011;23665;51.044;3.748;2022-07-29T21:59:29;7.47;;;2.97;;
29720;SDS011;23665;51.044;3.748;2022-07-29T22:01:55;6.40;;;2.17;;
29720;SDS011;23665;51.044;3.748;2022-07-29T22:04:24;9.67;;;3.07;;
29720;SDS011;23665;51.044;3.748;2022-07-29T22:06:51;8.00;;;2.43;;
29720;SDS011;23665;51.044;3.748;2022-07-29T22:09:17;8.23;;;3.00;;
29720;SDS011;23665;51.044;3.748;2022-07-29T22:11:43;6.47;;;2.50;;
29720;SDS011;23665;51.044;3.748;2022-07-29T22:14:09;11.30;;;2.77;;
29720;SDS011;23665;51.044;3.748;2022-07-29T22:16:36;6.33;;;2.33;;
29720;SDS011;23665;51.044;3.748;2022-07-29T22:19:01;6.03;;;2.30;;
29720;SDS011;23665;51.044;3.748;2022-07-29T22:21:28;8.23;;;2.60;;
29720;SDS011;23665;51.044;3.748;2022-07-29T22:23:54;6.47;;;1.83;;
29720;SDS011;23665;51.044;3.748;2022-07-29T22:26:19;14.00;;;3.00;;
29720;SDS011;23665;51.044;3.748;2022-07-29T22:28:45;6.63;;;2.17;;
29720;SDS011;23665;51.044;3.748;2022-07-29T22:31:10;8.50;;;2.73;;
29720;SDS011;23665;51.044;3.748;2022-07-29T22:33:36;5.73;;;2.47;;
29720;SDS011;23665;51.044;3.748;2022-07-29T22:36:02;7.17;;;2.50;;
29720;SDS011;23665;51.044;3.748;2022-07-29T22:38:28;6.33;;;2.03;;
29720;SDS011;23665;51.044;3.748;2022-07-29T22:40:53;7.80;;;3.77;;
29720;SDS011;23665;51.044;3.748;2022-07-29T22:43:19;6.90;;;2.03;;
29720;SDS011;23665;51.044;3.748;2022-07-29T22:45:45;8.37;;;2.20;;
29720;SDS011;23665;51.044;3.748;2022-07-29T22:48:10;9.40;;;3.20;;
29720;SDS011;23665;51.044;3.748;2022-07-29T22:50:36;8.40;;;2.37;;
29720;SDS011;23665;51.044;3.748;2022-07-29T22:53:02;9.00;;;3.40;;
29720;SDS011;23665;51.044;3.748;2022-07-29T22:55:28;7.20;;;3.20;;
29720;SDS011;23665;51.044;3.748;2022-07-29T22:57:54;11.23;;;3.97;;
29720;SDS011;23665;51.044;3.748;2022-07-29T23:00:19;7.60;;;3.33;;
29720;SDS011;23665;51.044;3.748;2022-07-29T23:02:45;9.87;;;3.73;;
29720;SDS011;23665;51.044;3.748;2022-07-29T23:05:11;7.57;;;2.60;;
29720;SDS011;23665;51.044;3.748;2022-07-29T23:07:39;6.27;;;3.40;;
29720;SDS011;23665;51.044;3.748;2022-07-29T23:10:05;7.40;;;2.37;;
29720;SDS011;23665;51.044;3.748;2022-07-29T23:12:32;7.83;;;3.37;;
29720;SDS011;23665;51.044;3.748;2022-07-29T23:14:57;12.87;;;2.80;;
29720;SDS011;23665;51.044;3.748;2022-07-29T23:17:23;9.70;;;3.20;;
29720;SDS011;23665;51.044;3.748;2022-07-29T23:19:49;10.40;;;3.67;;
29720;SDS011;23665;51.044;3.748;2022-07-29T23:22:15;12.30;;;4.17;;
29720;SDS011;23665;51.044;3.748;2022-07-29T23:24:40;9.27;;;3.03;;
29720;SDS011;23665;51.044;3.748;2022-07-29T23:27:06;7.53;;;3.00;;
29720;SDS011;23665;51.044;3.748;2022-07-29T23:29:32;8.77;;;4.27;;
29720;SDS011;23665;51.044;3.748;2022-07-29T23:31:57;5.97;;;3.00;;
29720;SDS011;23665;51.044;3.748;2022-07-29T23:34:23;7.67;;;3.00;;
29720;SDS011;23665;51.044;3.748;2022-07-29T23:36:49;5.77;;;2.13;;
29720;SDS011;23665;51.044;3.748;2022-07-29T23:39:14;7.60;;;3.97;;
29720;SDS011;23665;51.044;3.748;2022-07-29T23:41:40;8.80;;;3.83;;
29720;SDS011;23665;51.044;3.748;2022-07-29T23:44:06;9.27;;;2.30;;
29720;SDS011;23665;51.044;3.748;2022-07-29T23:46:32;7.50;;;3.10;;
29720;SDS011;23665;51.044;3.748;2022-07-29T23:48:58;8.57;;;3.33;;
29720;SDS011;23665;51.044;3.748;2022-07-29T23:51:23;10.73;;;3.80;;
29720;SDS011;23665;51.044;3.748;2022-07-29T23:53:49;4.80;;;2.13;;
29720;SDS011;23665;51.044;3.748;2022-07-29T23:56:15;8.33;;;2.43;;
29720;SDS011;23665;51.044;3.748;2022-07-29T23:58:40;12.60;;;3.07;;
